sensor_id;sensor_type;location;lat;lon;timestamp;pressure;altitude;pressure_sealevel;temperature;humidity
44001;BME280;29660;42.892;24.710;2023-12-20T00:03:05;97281.09;;;-0.08;100.00
44001;BME280;29660;42.892;24.710;2023-12-20T00:08:27;97278.47;;;-0.08;100.00
44001;BME280;29660;42.892;24.710;2023-12-20T00:13:49;97277.28;;;-0.12;100.00
44001;BME280;29660;42.892;24.710;2023-12-20T00:19:12;97251.56;;;-0.22;100.00
44001;BME280;29660;42.892;24.710;2023-12-20T00:24:35;97267.84;;;-0.20;100.00
44001;BME280;29660;42.892;24.710;2023-12-20T00:29:57;97184.34;;;-0.73;100.00
44001;BME280;29660;42.892;24.710;2023-12-20T00:35:19;97252.63;;;-0.30;100.00
44001;BME280;29660;42.892;24.710;2023-12-20T00:40:41;97252.78;;;-0.25;100.00
44001;BME280;29660;42.892;24.710;2023-12-20T00:46:03;97241.06;;;-0.22;100.00
44001;BME280;29660;42.892;24.710;2023-12-20T00:51:26;97240.69;;;-0.26;100.00
44001;BME280;29660;42.892;24.710;2023-12-20T00:56:48;97229.19;;;-0.25;100.00
44001;BME280;29660;42.892;24.710;2023-12-20T01:02:10;97214.25;;;-0.24;100.00
44001;BME280;29660;42.892;24.710;2023-12-20T01:07:32;97110.50;;;-0.88;100.00
44001;BME280;29660;42.892;24.710;2023-12-20T01:12:54;97116.56;;;-0.88;100.00
44001;BME280;29660;42.892;24.710;2023-12-20T01:18:17;97205.31;;;-0.41;100.00
44001;BME280;29660;42.892;24.710;2023-12-20T01:23:39;97192.78;;;-0.39;100.00
44001;BME280;29660;42.892;24.710;2023-12-20T01:29:01;97183.41;;;-0.47;100.00
44001;BME280;29660;42.892;24.710;2023-12-20T01:34:23;97179.53;;;-0.44;100.00
44001;BME280;29660;42.892;24.710;2023-12-20T01:39:46;97171.03;;;-0.40;100.00
44001;BME280;29660;42.892;24.710;2023-12-20T01:45:08;97125.25;;;-0.62;100.00
44001;BME280;29660;42.892;24.710;2023-12-20T01:50:31;97129.75;;;-0.44;100.00
44001;BME280;29660;42.892;24.710;2023-12-20T01:55:55;97129.19;;;-0.46;100.00
44001;BME280;29660;42.892;24.710;2023-12-20T02:01:18;97127.56;;;-0.47;100.00
44001;BME280;29660;42.892;24.710;2023-12-20T02:06:40;97114.53;;;-0.54;100.00
44001;BME280;29660;42.892;24.710;2023-12-20T02:12:03;97045.97;;;-1.01;100.00
44001;BME280;29660;42.892;24.710;2023-12-20T02:17:25;97044.53;;;-0.97;100.00
44001;BME280;29660;42.892;24.710;2023-12-20T02:22:48;97099.22;;;-0.57;100.00
44001;BME280;29660;42.892;24.710;2023-12-20T02:28:10;96608.94;;;-3.70;100.00
44001;BME280;29660;42.892;24.710;2023-12-20T02:33:32;97084.16;;;-0.62;100.00
44001;BME280;29660;42.892;24.710;2023-12-20T02:38:54;96950.66;;;-1.50;100.00
44001;BME280;29660;42.892;24.710;2023-12-20T02:44:16;97073.72;;;-0.68;100.00
44001;BME280;29660;42.892;24.710;2023-12-20T02:49:38;96958.25;;;-1.42;100.00
44001;BME280;29660;42.892;24.710;2023-12-20T02:55:01;97057.44;;;-0.70;100.00
44001;BME280;29660;42.892;24.710;2023-12-20T03:00:23;97008.16;;;-1.05;100.00
44001;BME280;29660;42.892;24.710;2023-12-20T03:05:46;97052.44;;;-0.79;100.00
44001;BME280;29660;42.892;24.710;2023-12-20T03:11:08;97052.00;;;-0.76;100.00
44001;BME280;29660;42.892;24.710;2023-12-20T03:16:30;97038.78;;;-0.81;100.00
44001;BME280;29660;42.892;24.710;2023-12-20T03:21:57;97034.38;;;-0.87;100.00
44001;BME280;29660;42.892;24.710;2023-12-20T03:27:21;97044.41;;;-0.84;100.00
44001;BME280;29660;42.892;24.710;2023-12-20T03:32:44;96951.00;;;-1.40;100.00
44001;BME280;29660;42.892;24.710;2023-12-20T03:38:06;97020.66;;;-0.82;100.00
44001;BME280;29660;42.892;24.710;2023-12-20T03:43:29;96923.69;;;-1.44;100.00
44001;BME280;29660;42.892;24.710;2023-12-20T03:48:52;96971.38;;;-0.92;100.00
44001;BME280;29660;42.892;24.710;2023-12-20T03:54:14;96999.81;;;-0.70;100.00
44001;BME280;29660;42.892;24.710;2023-12-20T03:59:37;96954.97;;;-0.81;100.00
44001;BME280;29660;42.892;24.710;2023-12-20T04:04:59;96986.31;;;-0.49;100.00
44001;BME280;29660;42.892;24.710;2023-12-20T04:10:21;96987.63;;;-0.40;100.00
44001;BME280;29660;42.892;24.710;2023-12-20T04:15:43;96866.72;;;-1.17;100.00
44001;BME280;29660;42.892;24.710;2023-12-20T04:21:06;96968.84;;;-0.55;100.00
44001;BME280;29660;42.892;24.710;2023-12-20T04:26:29;96976.69;;;-0.55;100.00
44001;BME280;29660;42.892;24.710;2023-12-20T04:31:51;96970.28;;;-0.59;100.00
44001;BME280;29660;42.892;24.710;2023-12-20T04:37:13;96967.03;;;-0.55;100.00
44001;BME280;29660;42.892;24.710;2023-12-20T04:42:35;96869.16;;;-1.22;100.00
44001;BME280;29660;42.892;24.710;2023-12-20T04:47:58;96906.75;;;-0.91;100.00
44001;BME280;29660;42.892;24.710;2023-12-20T04:53:20;96958.13;;;-0.72;100.00
44001;BME280;29660;42.892;24.710;2023-12-20T04:58:42;96933.91;;;-0.86;100.00
44001;BME280;29660;42.892;24.710;2023-12-20T05:04:05;96951.94;;;-0.78;100.00
44001;BME280;29660;42.892;24.710;2023-12-20T05:09:27;96856.06;;;-1.22;100.00
44001;BME280;29660;42.892;24.710;2023-12-20T05:14:49;96934.34;;;-0.70;100.00
44001;BME280;29660;42.892;24.710;2023-12-20T05:20:11;96926.22;;;-0.62;100.00
44001;BME280;29660;42.892;24.710;2023-12-20T05:25:33;96917.19;;;-0.66;100.00
44001;BME280;29660;42.892;24.710;2023-12-20T05:30:55;96919.81;;;-0.66;100.00
44001;BME280;29660;42.892;24.710;2023-12-20T05:36:18;96882.53;;;-0.87;100.00
44001;BME280;29660;42.892;24.710;2023-12-20T05:41:40;96945.41;;;-0.68;100.00
44001;BME280;29660;42.892;24.710;2023-12-20T05:47:02;96891.50;;;-0.58;100.00
44001;BME280;29660;42.892;24.710;2023-12-20T05:52:25;96854.09;;;-0.65;100.00
44001;BME280;29660;42.892;24.710;2023-12-20T05:57:47;96765.59;;;-1.11;100.00
44001;BME280;29660;42.892;24.710;2023-12-20T06:03:10;96879.28;;;-0.27;100.00
44001;BME280;29660;42.892;24.710;2023-12-20T06:08:32;96874.66;;;-0.32;100.00
44001;BME280;29660;42.892;24.710;2023-12-20T06:13:54;96873.44;;;-0.29;100.00
44001;BME280;29660;42.892;24.710;2023-12-20T06:19:16;96869.22;;;-0.30;100.00
44001;BME280;29660;42.892;24.710;2023-12-20T06:24:38;96874.09;;;-0.15;100.00
44001;BME280;29660;42.892;24.710;2023-12-20T06:30:00;96857.66;;;-0.22;100.00
44001;BME280;29660;42.892;24.710;2023-12-20T06:35:23;96824.00;;;-0.26;100.00
44001;BME280;29660;42.892;24.710;2023-12-20T06:40:45;96843.59;;;0.02;100.00
44001;BME280;29660;42.892;24.710;2023-12-20T06:46:08;96862.63;;;0.28;100.00
44001;BME280;29660;42.892;24.710;2023-12-20T06:51:30;96856.91;;;0.31;100.00
44001;BME280;29660;42.892;24.710;2023-12-20T06:56:52;96777.75;;;-0.20;100.00
44001;BME280;29660;42.892;24.710;2023-12-20T07:02:15;96550.72;;;-1.63;100.00
44001;BME280;29660;42.892;24.710;2023-12-20T07:07:37;96868.25;;;0.78;100.00
44001;BME280;29660;42.892;24.710;2023-12-20T07:12:59;96828.00;;;0.84;100.00
44001;BME280;29660;42.892;24.710;2023-12-20T07:18:21;96804.00;;;1.04;100.00
44001;BME280;29660;42.892;24.710;2023-12-20T07:23:43;96674.22;;;0.48;100.00
44001;BME280;29660;42.892;24.710;2023-12-20T07:29:05;96822.34;;;1.68;100.00
44001;BME280;29660;42.892;24.710;2023-12-20T07:34:29;96813.03;;;1.89;100.00
44001;BME280;29660;42.892;24.710;2023-12-20T07:39:52;96812.41;;;2.15;100.00
44001;BME280;29660;42.892;24.710;2023-12-20T07:45:15;96788.94;;;2.26;100.00
44001;BME280;29660;42.892;24.710;2023-12-20T07:50:38;96790.19;;;2.74;100.00
44001;BME280;29660;42.892;24.710;2023-12-20T07:56:00;96792.69;;;3.02;100.00
44001;BME280;29660;42.892;24.710;2023-12-20T08:01:22;96773.94;;;3.20;100.00
44001;BME280;29660;42.892;24.710;2023-12-20T08:06:44;96781.97;;;3.75;100.00
44001;BME280;29660;42.892;24.710;2023-12-20T08:12:07;96806.59;;;4.12;100.00
44001;BME280;29660;42.892;24.710;2023-12-20T08:17:29;96775.47;;;4.47;100.00
44001;BME280;29660;42.892;24.710;2023-12-20T08:22:51;96677.09;;;4.24;100.00
44001;BME280;29660;42.892;24.710;2023-12-20T08:28:13;96738.00;;;4.97;100.00
44001;BME280;29660;42.892;24.710;2023-12-20T08:33:35;96674.09;;;5.05;100.00
44001;BME280;29660;42.892;24.710;2023-12-20T08:38:58;96739.59;;;5.76;100.00
44001;BME280;29660;42.892;24.710;2023-12-20T08:44:22;96716.13;;;6.15;99.50
44001;BME280;29660;42.892;24.710;2023-12-20T08:49:44;96703.41;;;6.12;100.00
44001;BME280;29660;42.892;24.710;2023-12-20T08:55:08;96567.34;;;5.37;100.00
44001;BME280;29660;42.892;24.710;2023-12-20T09:00:32;96676.13;;;6.22;99.90
44001;BME280;29660;42.892;24.710;2023-12-20T09:05:54;96666.31;;;6.28;100.00
44001;BME280;29660;42.892;24.710;2023-12-20T09:11:16;96653.34;;;6.36;100.00
44001;BME280;29660;42.892;24.710;2023-12-20T09:16:39;96629.97;;;6.59;100.00
44001;BME280;29660;42.892;24.710;2023-12-20T09:22:01;96597.53;;;6.93;99.18
44001;BME280;29660;42.892;24.710;2023-12-20T09:27:23;96606.47;;;7.46;100.00
44001;BME280;29660;42.892;24.710;2023-12-20T09:32:46;96593.34;;;7.65;98.00
44001;BME280;29660;42.892;24.710;2023-12-20T09:38:08;96513.19;;;7.34;95.14
44001;BME280;29660;42.892;24.710;2023-12-20T09:43:34;96573.81;;;8.14;93.69
44001;BME280;29660;42.892;24.710;2023-12-20T09:48:59;96559.78;;;8.38;92.49
44001;BME280;29660;42.892;24.710;2023-12-20T09:54:23;96554.94;;;8.64;89.33
44001;BME280;29660;42.892;24.710;2023-12-20T09:59:45;96539.25;;;8.86;88.60
44001;BME280;29660;42.892;24.710;2023-12-20T10:05:08;96513.66;;;9.09;83.98
44001;BME280;29660;42.892;24.710;2023-12-20T10:10:33;96404.38;;;8.54;83.08
44001;BME280;29660;42.892;24.710;2023-12-20T10:15:59;96378.06;;;8.52;83.28
44001;BME280;29660;42.892;24.710;2023-12-20T10:21:25;96478.72;;;9.16;80.70
44001;BME280;29660;42.892;24.710;2023-12-20T10:27:01;96475.25;;;9.15;83.27
44001;BME280;29660;42.892;24.710;2023-12-20T10:32:27;96479.94;;;9.04;86.13
44001;BME280;29660;42.892;24.710;2023-12-20T10:37:52;96359.38;;;8.20;90.42
44001;BME280;29660;42.892;24.710;2023-12-20T10:43:17;96448.25;;;8.89;90.28
44001;BME280;29660;42.892;24.710;2023-12-20T10:48:40;96474.13;;;9.02;90.24
44001;BME280;29660;42.892;24.710;2023-12-20T10:54:03;96306.59;;;8.13;92.19
44001;BME280;29660;42.892;24.710;2023-12-20T10:59:27;96442.38;;;9.25;93.14
44001;BME280;29660;42.892;24.710;2023-12-20T11:05:06;96437.88;;;9.39;90.46
44001;BME280;29660;42.892;24.710;2023-12-20T11:10:48;96385.63;;;9.29;89.18
44001;BME280;29660;42.892;24.710;2023-12-20T11:16:14;96135.13;;;7.93;88.16
44001;BME280;29660;42.892;24.710;2023-12-20T11:21:36;96405.06;;;10.13;86.41
44001;BME280;29660;42.892;24.710;2023-12-20T11:26:59;96392.16;;;10.20;83.88
44001;BME280;29660;42.892;24.710;2023-12-20T11:37:48;96383.53;;;10.50;81.14
44001;BME280;29660;42.892;24.710;2023-12-20T11:43:11;96376.44;;;10.68;79.31
44001;BME280;29660;42.892;24.710;2023-12-20T11:48:40;96370.47;;;10.85;80.55
44001;BME280;29660;42.892;24.710;2023-12-20T11:54:02;96359.97;;;10.89;79.66
44001;BME280;29660;42.892;24.710;2023-12-20T11:59:24;96337.59;;;10.98;79.68
44001;BME280;29660;42.892;24.710;2023-12-20T12:04:48;96327.63;;;11.13;78.48
44001;BME280;29660;42.892;24.710;2023-12-20T12:10:11;96327.53;;;11.26;79.25
44001;BME280;29660;42.892;24.710;2023-12-20T12:15:33;96320.81;;;11.38;80.40
44001;BME280;29660;42.892;24.710;2023-12-20T12:21:01;96283.06;;;11.22;81.07
44001;BME280;29660;42.892;24.710;2023-12-20T12:26:30;96271.91;;;11.20;80.26
44001;BME280;29660;42.892;24.710;2023-12-20T12:31:52;96242.59;;;10.89;83.60
44001;BME280;29660;42.892;24.710;2023-12-20T12:37:15;96293.53;;;11.10;82.14
44001;BME280;29660;42.892;24.710;2023-12-20T12:42:41;96175.81;;;10.18;82.71
44001;BME280;29660;42.892;24.710;2023-12-20T12:48:04;96270.09;;;10.67;81.27
44001;BME280;29660;42.892;24.710;2023-12-20T12:53:26;96224.78;;;10.22;78.10
44001;BME280;29660;42.892;24.710;2023-12-20T12:58:49;96213.25;;;10.13;78.49
44001;BME280;29660;42.892;24.710;2023-12-20T13:04:11;96290.03;;;10.47;81.97
44001;BME280;29660;42.892;24.710;2023-12-20T13:09:33;96286.69;;;10.41;83.04
44001;BME280;29660;42.892;24.710;2023-12-20T13:14:56;96290.56;;;10.35;78.08
44001;BME280;29660;42.892;24.710;2023-12-20T13:20:19;96281.00;;;10.34;76.81
44001;BME280;29660;42.892;24.710;2023-12-20T13:25:41;96298.78;;;10.25;81.08
44001;BME280;29660;42.892;24.710;2023-12-20T13:31:03;96286.16;;;10.17;81.73
44001;BME280;29660;42.892;24.710;2023-12-20T13:36:26;96146.47;;;9.28;79.63
44001;BME280;29660;42.892;24.710;2023-12-20T13:41:48;96183.00;;;9.36;82.04
44001;BME280;29660;42.892;24.710;2023-12-20T13:47:10;96274.19;;;9.92;85.54
44001;BME280;29660;42.892;24.710;2023-12-20T13:52:32;96174.34;;;9.17;84.82
44001;BME280;29660;42.892;24.710;2023-12-20T13:57:57;96271.19;;;9.57;86.93
44001;BME280;29660;42.892;24.710;2023-12-20T14:03:20;96268.44;;;9.34;87.00
44001;BME280;29660;42.892;24.710;2023-12-20T14:08:42;96255.53;;;9.00;92.56
44001;BME280;29660;42.892;24.710;2023-12-20T14:14:04;96271.06;;;8.79;96.32
44001;BME280;29660;42.892;24.710;2023-12-20T14:19:27;96274.84;;;8.59;98.50
44001;BME280;29660;42.892;24.710;2023-12-20T14:24:49;96272.03;;;8.37;96.93
44001;BME280;29660;42.892;24.710;2023-12-20T14:30:11;96226.53;;;8.06;98.61
44001;BME280;29660;42.892;24.710;2023-12-20T14:35:36;96263.53;;;8.16;100.00
44001;BME280;29660;42.892;24.710;2023-12-20T14:40:58;96279.06;;;7.90;100.00
44001;BME280;29660;42.892;24.710;2023-12-20T14:46:20;96196.03;;;7.28;100.00
44001;BME280;29660;42.892;24.710;2023-12-20T14:51:45;96276.25;;;7.62;100.00
44001;BME280;29660;42.892;24.710;2023-12-20T14:57:09;96278.72;;;7.35;100.00
44001;BME280;29660;42.892;24.710;2023-12-20T15:02:32;96278.88;;;7.20;100.00
44001;BME280;29660;42.892;24.710;2023-12-20T15:07:54;96216.81;;;6.73;100.00
44001;BME280;29660;42.892;24.710;2023-12-20T15:13:16;96130.22;;;5.86;100.00
44001;BME280;29660;42.892;24.710;2023-12-20T15:18:38;96287.28;;;6.74;100.00
44001;BME280;29660;42.892;24.710;2023-12-20T15:24:00;96280.50;;;6.62;100.00
44001;BME280;29660;42.892;24.710;2023-12-20T15:29:35;96291.16;;;6.52;100.00
44001;BME280;29660;42.892;24.710;2023-12-20T15:34:58;96261.69;;;6.30;100.00
44001;BME280;29660;42.892;24.710;2023-12-20T15:40:20;96292.84;;;6.43;100.00
44001;BME280;29660;42.892;24.710;2023-12-20T15:45:42;96298.78;;;6.30;100.00
44001;BME280;29660;42.892;24.710;2023-12-20T15:51:14;96185.53;;;5.43;100.00
44001;BME280;29660;42.892;24.710;2023-12-20T15:56:36;96292.25;;;6.12;100.00
44001;BME280;29660;42.892;24.710;2023-12-20T16:01:59;96222.72;;;5.62;100.00
44001;BME280;29660;42.892;24.710;2023-12-20T16:07:21;96288.13;;;5.96;100.00
44001;BME280;29660;42.892;24.710;2023-12-20T16:12:43;96297.16;;;5.89;100.00
44001;BME280;29660;42.892;24.710;2023-12-20T16:18:05;96297.44;;;5.83;100.00
44001;BME280;29660;42.892;24.710;2023-12-20T16:23:31;96245.78;;;5.51;100.00
44001;BME280;29660;42.892;24.710;2023-12-20T16:28:53;96281.13;;;5.71;100.00
44001;BME280;29660;42.892;24.710;2023-12-20T16:34:15;96294.34;;;5.65;100.00
44001;BME280;29660;42.892;24.710;2023-12-20T16:39:37;96165.97;;;4.79;100.00
44001;BME280;29660;42.892;24.710;2023-12-20T16:45:00;96295.22;;;5.46;100.00
44001;BME280;29660;42.892;24.710;2023-12-20T16:50:22;96288.91;;;5.41;100.00
44001;BME280;29660;42.892;24.710;2023-12-20T16:55:44;96280.19;;;5.41;100.00
44001;BME280;29660;42.892;24.710;2023-12-20T17:01:06;96300.31;;;5.32;100.00
44001;BME280;29660;42.892;24.710;2023-12-20T17:06:30;96274.44;;;5.18;100.00
44001;BME280;29660;42.892;24.710;2023-12-20T17:11:53;96265.50;;;5.09;100.00
44001;BME280;29660;42.892;24.710;2023-12-20T17:17:15;96276.06;;;5.09;100.00
44001;BME280;29660;42.892;24.710;2023-12-20T17:22:37;96280.31;;;5.00;100.00
44001;BME280;29660;42.892;24.710;2023-12-20T17:28:00;96276.94;;;4.84;100.00
44001;BME280;29660;42.892;24.710;2023-12-20T17:33:22;96257.44;;;4.50;100.00
44001;BME280;29660;42.892;24.710;2023-12-20T17:38:44;96240.81;;;4.34;100.00
44001;BME280;29660;42.892;24.710;2023-12-20T17:44:06;96274.31;;;4.64;100.00
44001;BME280;29660;42.892;24.710;2023-12-20T17:49:28;96269.31;;;4.57;100.00
44001;BME280;29660;42.892;24.710;2023-12-20T17:54:53;96279.88;;;4.57;100.00
44001;BME280;29660;42.892;24.710;2023-12-20T18:00:20;96268.00;;;4.39;100.00
44001;BME280;29660;42.892;24.710;2023-12-20T18:05:42;96161.66;;;3.73;100.00
44001;BME280;29660;42.892;24.710;2023-12-20T18:11:04;96292.03;;;4.38;100.00
44001;BME280;29660;42.892;24.710;2023-12-20T18:16:26;96265.34;;;4.19;100.00
44001;BME280;29660;42.892;24.710;2023-12-20T18:21:49;96290.44;;;4.27;100.00
44001;BME280;29660;42.892;24.710;2023-12-20T18:27:12;96298.91;;;4.29;100.00
44001;BME280;29660;42.892;24.710;2023-12-20T18:32:35;96291.75;;;4.24;100.00
44001;BME280;29660;42.892;24.710;2023-12-20T18:37:57;96207.53;;;3.72;100.00
44001;BME280;29660;42.892;24.710;2023-12-20T18:43:19;96298.34;;;4.06;100.00
44001;BME280;29660;42.892;24.710;2023-12-20T18:48:42;96295.44;;;4.03;100.00
44001;BME280;29660;42.892;24.710;2023-12-20T18:54:06;96149.66;;;2.99;100.00
44001;BME280;29660;42.892;24.710;2023-12-20T18:59:28;96281.16;;;3.78;100.00
44001;BME280;29660;42.892;24.710;2023-12-20T19:04:51;96290.91;;;3.78;100.00
44001;BME280;29660;42.892;24.710;2023-12-20T19:10:13;96291.41;;;3.75;100.00
44001;BME280;29660;42.892;24.710;2023-12-20T19:15:36;96288.78;;;3.75;100.00
44001;BME280;29660;42.892;24.710;2023-12-20T19:20:58;96293.00;;;3.71;100.00
44001;BME280;29660;42.892;24.710;2023-12-20T19:26:20;96231.72;;;3.38;100.00
44001;BME280;29660;42.892;24.710;2023-12-20T19:31:44;96276.84;;;3.57;100.00
44001;BME280;29660;42.892;24.710;2023-12-20T19:37:08;96292.72;;;3.67;100.00
44001;BME280;29660;42.892;24.710;2023-12-20T19:42:32;96291.41;;;3.69;100.00
44001;BME280;29660;42.892;24.710;2023-12-20T19:47:58;96289.81;;;3.68;100.00
44001;BME280;29660;42.892;24.710;2023-12-20T19:53:20;96281.34;;;3.56;100.00
44001;BME280;29660;42.892;24.710;2023-12-20T19:58:45;96290.56;;;3.54;100.00
44001;BME280;29660;42.892;24.710;2023-12-20T20:04:07;96301.88;;;3.44;100.00
44001;BME280;29660;42.892;24.710;2023-12-20T20:09:29;96076.34;;;1.97;100.00
44001;BME280;29660;42.892;24.710;2023-12-20T20:14:52;96278.56;;;3.15;100.00
44001;BME280;29660;42.892;24.710;2023-12-20T20:20:15;96284.84;;;3.09;100.00
44001;BME280;29660;42.892;24.710;2023-12-20T20:25:37;96297.94;;;2.94;100.00
44001;BME280;29660;42.892;24.710;2023-12-20T20:30:59;96234.53;;;2.58;100.00
44001;BME280;29660;42.892;24.710;2023-12-20T20:36:21;96240.81;;;2.52;100.00
44001;BME280;29660;42.892;24.710;2023-12-20T20:41:44;96300.72;;;2.77;100.00
44001;BME280;29660;42.892;24.710;2023-12-20T20:47:07;96155.63;;;1.84;100.00
44001;BME280;29660;42.892;24.710;2023-12-20T20:52:29;96269.47;;;2.49;100.00
44001;BME280;29660;42.892;24.710;2023-12-20T20:57:51;96284.59;;;2.63;100.00
44001;BME280;29660;42.892;24.710;2023-12-20T21:03:13;96284.22;;;2.50;100.00
44001;BME280;29660;42.892;24.710;2023-12-20T21:08:36;96273.91;;;2.43;100.00
44001;BME280;29660;42.892;24.710;2023-12-20T21:13:58;96273.34;;;2.36;100.00
44001;BME280;29660;42.892;24.710;2023-12-20T21:19:20;96196.13;;;1.83;100.00
44001;BME280;29660;42.892;24.710;2023-12-20T21:24:42;96279.00;;;2.22;100.00
44001;BME280;29660;42.892;24.710;2023-12-20T21:30:06;96183.75;;;1.51;100.00
44001;BME280;29660;42.892;24.710;2023-12-20T21:35:29;96280.47;;;2.08;100.00
44001;BME280;29660;42.892;24.710;2023-12-20T21:42:16;96280.91;;;2.00;100.00
44001;BME280;29660;42.892;24.710;2023-12-20T21:47:38;96273.09;;;2.05;100.00
44001;BME280;29660;42.892;24.710;2023-12-20T21:53:00;96263.03;;;1.97;100.00
44001;BME280;29660;42.892;24.710;2023-12-20T21:58:22;96133.50;;;1.15;100.00
44001;BME280;29660;42.892;24.710;2023-12-20T22:03:44;96171.56;;;1.40;100.00
44001;BME280;29660;42.892;24.710;2023-12-20T22:09:07;96246.06;;;1.83;100.00
44001;BME280;29660;42.892;24.710;2023-12-20T22:14:30;96233.34;;;1.69;100.00
44001;BME280;29660;42.892;24.710;2023-12-20T22:19:54;96170.59;;;1.24;100.00
44001;BME280;29660;42.892;24.710;2023-12-20T22:25:16;96236.69;;;1.65;100.00
44001;BME280;29660;42.892;24.710;2023-12-20T22:30:38;96228.88;;;1.70;100.00
44001;BME280;29660;42.892;24.710;2023-12-20T22:36:00;96106.94;;;0.85;100.00
44001;BME280;29660;42.892;24.710;2023-12-20T22:41:23;96219.59;;;1.62;100.00
44001;BME280;29660;42.892;24.710;2023-12-20T22:46:45;96115.63;;;0.90;100.00
44001;BME280;29660;42.892;24.710;2023-12-20T22:52:07;95883.19;;;-0.63;100.00
44001;BME280;29660;42.892;24.710;2023-12-20T22:57:30;96226.78;;;1.45;100.00
44001;BME280;29660;42.892;24.710;2023-12-20T23:02:53;96194.06;;;1.31;100.00
44001;BME280;29660;42.892;24.710;2023-12-20T23:08:15;96248.84;;;1.44;100.00
44001;BME280;29660;42.892;24.710;2023-12-20T23:13:37;96150.22;;;1.09;100.00
44001;BME280;29660;42.892;24.710;2023-12-20T23:18:59;96099.19;;;0.73;100.00
44001;BME280;29660;42.892;24.710;2023-12-20T23:24:22;96223.50;;;1.33;100.00
44001;BME280;29660;42.892;24.710;2023-12-20T23:29:44;96127.75;;;0.69;100.00
44001;BME280;29660;42.892;24.710;2023-12-20T23:35:06;96220.81;;;1.28;100.00
44001;BME280;29660;42.892;24.710;2023-12-20T23:40:33;96213.41;;;1.25;100.00
44001;BME280;29660;42.892;24.710;2023-12-20T23:45:55;96229.75;;;1.27;100.00
44001;BME280;29660;42.892;24.710;2023-12-20T23:51:18;96245.50;;;1.27;100.00
44001;BME280;29660;42.892;24.710;2023-12-20T23:56:40;96237.84;;;1.25;100.00
